Time;durP1;ratioP1;P1;durP2;ratioP2;P2;SDS_P1;SDS_P2;PMS_P1;PMS_P2;Temp;Humidity;BMP_temperature;BMP_pressure;BME280_temperature;BME280_humidity;BME280_pressure;Samples;Min_cycle;Max_cycle;Signal;HPM_P1;HPM_P2
2022/03/04 00:01:39;;;;;;;;;;;;;;;1.36;100.00;102031.94;5037660;28;19957;-72
2022/03/04 00:04:04;;;;;;;;;;;;;;;1.31;100.00;102036.22;5037504;28;19921;-72
2022/03/04 00:06:29;;;;;;;;;;;;;;;1.27;100.00;102032.69;5037285;28;20012;-72
2022/03/04 00:08:55;;;;;;;;;;;;;;;1.28;100.00;102037.06;5037896;28;19917;-72
2022/03/04 00:11:20;;;;;;;;;;;;;;;1.33;100.00;102034.50;5036994;28;20031;-72
2022/03/04 00:13:45;;;;;;;;;;;;;;;1.29;100.00;102036.19;5037501;28;20282;-72
2022/03/04 00:16:11;;;;;;;;;;;;;;;1.29;100.00;102040.56;5035893;28;20015;-72
2022/03/04 00:18:36;;;;;;;;;;;;;;;1.14;100.00;102040.34;5036917;28;19924;-72
2022/03/04 00:21:02;;;;;;;;;;;;;;;1.19;100.00;102047.41;5035738;28;19924;-72
2022/03/04 00:23:27;;;;;;;;;;;;;;;1.17;100.00;102048.22;5036568;28;19918;-72
2022/03/04 00:25:52;;;;;;;;;;;;;;;1.10;100.00;102052.47;5036809;28;19921;-72
2022/03/04 00:28:18;;;;;;;;;;;;;;;1.15;100.00;102044.72;5036750;28;19917;-72
2022/03/04 00:30:43;;;;;;;;;;;;;;;1.17;100.00;102041.25;5036464;28;20306;-72
2022/03/04 00:33:08;;;;;;;;;;;;;;;1.10;100.00;102043.78;5036913;28;19925;-72
2022/03/04 00:35:33;;;;;;;;;;;;;;;1.05;100.00;102041.09;5037387;28;19959;-72
2022/03/04 00:37:58;;;;;;;;;;;;;;;1.07;100.00;102046.34;5019001;28;20356;-72
2022/03/04 00:40:24;;;;;;;;;;;;;;;1.14;100.00;102041.22;5036549;28;19917;-72
2022/03/04 00:42:49;;;;;;;;;;;;;;;1.02;100.00;102050.63;5036760;28;19921;-72
2022/03/04 00:45:14;;;;;;;;;;;;;;;0.98;100.00;102048.81;5036698;28;19917;-72
2022/03/04 00:47:40;;;;;;;;;;;;;;;1.02;100.00;102054.13;5036585;28;19917;-72
2022/03/04 00:50:05;;;;;;;;;;;;;;;0.97;100.00;102057.53;5036512;28;19924;-72
2022/03/04 00:52:30;;;;;;;;;;;;;;;0.90;100.00;102050.44;5036949;28;19943;-72
2022/03/04 00:54:56;;;;;;;;;;;;;;;0.95;100.00;102059.22;5036522;28;20289;-72
2022/03/04 00:57:21;;;;;;;;;;;;;;;0.81;100.00;102056.41;5018812;28;20286;-72
2022/03/04 00:59:47;;;;;;;;;;;;;;;0.78;100.00;102058.97;5036961;28;20369;-72
2022/03/04 01:02:12;;;;;;;;;;;;;;;0.75;100.00;102071.09;5035287;28;20362;-72
2022/03/04 01:04:37;;;;;;;;;;;;;;;0.80;100.00;102065.13;5035168;28;20330;-71
2022/03/04 01:07:03;;;;;;;;;;;;;;;0.78;100.00;102066.81;5036202;28;20350;-72
2022/03/04 01:09:28;;;;;;;;;;;;;;;0.68;100.00;102058.81;5036111;28;19917;-72
2022/03/04 01:11:53;;;;;;;;;;;;;;;0.74;100.00;102056.28;5035876;28;20374;-72
2022/03/04 01:14:18;;;;;;;;;;;;;;;0.72;100.00;102051.03;5036044;28;20579;-72
2022/03/04 01:16:44;;;;;;;;;;;;;;;0.73;100.00;102051.88;5018291;28;19917;-72
2022/03/04 01:19:09;;;;;;;;;;;;;;;0.68;100.00;102057.06;5036057;28;20015;-71
2022/03/04 01:21:34;;;;;;;;;;;;;;;0.57;100.00;102042.06;5035487;28;19917;-71
2022/03/04 01:24:00;;;;;;;;;;;;;;;0.54;100.00;102061.16;5035784;28;20301;-72
2022/03/04 01:26:25;;;;;;;;;;;;;;;0.45;100.00;102065.34;5035768;28;20377;-72
2022/03/04 01:28:50;;;;;;;;;;;;;;;0.52;100.00;102062.88;5035708;28;19970;-72
2022/03/04 01:31:15;;;;;;;;;;;;;;;0.42;100.00;102066.19;5035391;28;19917;-72
2022/03/04 01:33:41;;;;;;;;;;;;;;;0.45;100.00;102061.00;5032451;28;19928;-71
2022/03/04 01:36:06;;;;;;;;;;;;;;;0.48;100.00;102062.78;5035547;28;19921;-72
2022/03/04 01:38:39;;;;;;;;;;;;;;;0.40;100.00;102057.44;5035489;28;19917;-72
2022/03/04 01:41:04;;;;;;;;;;;;;;;0.28;100.00;102062.44;5033571;28;19928;-72
2022/03/04 01:43:29;;;;;;;;;;;;;;;0.24;100.00;102067.59;5035447;28;19917;-72
2022/03/04 01:45:54;;;;;;;;;;;;;;;0.21;100.00;102060.56;5035336;28;19971;-72
2022/03/04 01:48:20;;;;;;;;;;;;;;;0.18;100.00;102059.63;5035269;28;19948;-72
2022/03/04 01:50:49;;;;;;;;;;;;;;;0.19;100.00;102062.25;5035520;28;19964;-72
2022/03/04 01:53:15;;;;;;;;;;;;;;;0.25;100.00;102066.72;5035557;28;20316;-72
2022/03/04 01:55:40;;;;;;;;;;;;;;;0.25;100.00;102058.91;5017313;28;19917;-72
2022/03/04 01:58:05;;;;;;;;;;;;;;;0.22;100.00;102054.47;5035827;28;19917;-72
2022/03/04 02:00:31;;;;;;;;;;;;;;;0.15;100.00;102054.34;5035172;28;20290;-72
2022/03/04 02:02:59;;;;;;;;;;;;;;;0.17;100.00;102058.75;5034827;28;19925;-72
2022/03/04 02:05:25;;;;;;;;;;;;;;;0.18;100.00;102049.16;5035297;28;19989;-72
2022/03/04 02:07:50;;;;;;;;;;;;;;;0.11;100.00;102055.16;5017743;28;19959;-72
2022/03/04 02:10:15;;;;;;;;;;;;;;;0.20;100.00;102056.22;5034906;28;19917;-72
2022/03/04 02:12:40;;;;;;;;;;;;;;;0.18;100.00;102052.69;5034876;28;19921;-72
2022/03/04 02:15:06;;;;;;;;;;;;;;;0.08;100.00;102052.50;5035009;28;19917;-72
2022/03/04 02:17:32;;;;;;;;;;;;;;;0.05;100.00;102055.91;5035026;28;19921;-72
2022/03/04 02:19:57;;;;;;;;;;;;;;;0.02;100.00;102058.47;5034898;28;19943;-72
2022/03/04 02:22:22;;;;;;;;;;;;;;;-0.04;100.00;102058.34;5035301;28;19924;-72
2022/03/04 02:24:48;;;;;;;;;;;;;;;0.05;100.00;102048.06;5017193;28;19920;-72
2022/03/04 02:27:13;;;;;;;;;;;;;;;-0.04;100.00;102047.91;5017242;28;20020;-72
2022/03/04 02:29:38;;;;;;;;;;;;;;;-0.06;100.00;102054.81;5034741;28;19917;-72
2022/03/04 02:32:04;;;;;;;;;;;;;;;-0.02;100.00;102051.44;5034596;28;20336;-72
2022/03/04 02:34:29;;;;;;;;;;;;;;;-0.07;100.00;102048.72;5034577;28;19921;-72
2022/03/04 02:36:55;;;;;;;;;;;;;;;-0.08;100.00;102056.53;5034498;28;20429;-72
2022/03/04 02:39:20;;;;;;;;;;;;;;;-0.16;100.00;102053.75;5034488;28;20361;-71
2022/03/04 02:41:45;;;;;;;;;;;;;;;-0.24;100.00;102055.31;5034113;28;19917;-72
2022/03/04 02:44:11;;;;;;;;;;;;;;;-0.16;100.00;102053.75;5034540;28;20358;-72
2022/03/04 02:46:37;;;;;;;;;;;;;;;-0.22;100.00;102045.81;5034372;28;19921;-72
2022/03/04 02:49:03;;;;;;;;;;;;;;;-0.24;100.00;102052.72;5035019;28;20317;-72
2022/03/04 02:51:28;;;;;;;;;;;;;;;-0.28;100.00;102047.41;5034124;28;19963;-72
2022/03/04 02:53:53;;;;;;;;;;;;;;;-0.36;100.00;102048.97;5034378;28;19917;-72
2022/03/04 02:56:19;;;;;;;;;;;;;;;-0.38;100.00;102048.94;5034819;28;20380;-72
2022/03/04 02:58:44;;;;;;;;;;;;;;;-0.43;100.00;102054.94;5034683;28;19921;-72
2022/03/04 03:01:09;;;;;;;;;;;;;;;-0.46;100.00;102060.94;5034352;28;20262;-72
2022/03/04 03:03:34;;;;;;;;;;;;;;;-0.54;100.00;102053.81;5016625;28;20289;-72
2022/03/04 03:06:00;;;;;;;;;;;;;;;-0.53;100.00;102051.25;5034344;28;19940;-72
2022/03/04 03:08:25;;;;;;;;;;;;;;;-0.58;100.00;102042.44;5034314;28;20011;-72
2022/03/04 03:10:50;;;;;;;;;;;;;;;-0.46;100.00;102044.44;5034345;28;20419;-72
2022/03/04 03:13:16;;;;;;;;;;;;;;;-0.52;100.00;102044.31;5034293;28;19924;-72
2022/03/04 03:15:41;;;;;;;;;;;;;;;-0.62;100.00;102048.44;5034465;28;19917;-72
2022/03/04 03:18:06;;;;;;;;;;;;;;;-0.59;100.00;102051.13;5016288;28;20416;-71
2022/03/04 03:20:31;;;;;;;;;;;;;;;-0.58;100.00;102051.97;5038498;28;19917;-72
2022/03/04 03:22:56;;;;;;;;;;;;;;;-0.59;100.00;102056.34;5017074;28;20359;-72
2022/03/04 03:25:22;;;;;;;;;;;;;;;-0.61;100.00;102057.13;5033989;28;20357;-72
2022/03/04 03:28:14;;;;;;;;;;;;;;;-0.64;100.00;102064.91;5034109;28;20012;-72
2022/03/04 03:30:40;;;;;;;;;;;;;;;-0.67;100.00;102057.91;5058875;28;19920;-72
2022/03/04 03:33:05;;;;;;;;;;;;;;;-0.61;100.00;102059.75;5073381;28;19939;-72
2022/03/04 03:35:30;;;;;;;;;;;;;;;-0.66;100.00;102059.66;5053614;28;19925;-72
2022/03/04 03:37:55;;;;;;;;;;;;;;;-0.71;100.00;102057.81;5053819;28;19916;-72
2022/03/04 03:40:21;;;;;;;;;;;;;;;-0.75;100.00;102069.00;5054180;28;19917;-72
2022/03/04 03:42:46;;;;;;;;;;;;;;;-0.77;100.00;102063.75;5053791;28;19916;-72
2022/03/04 03:45:11;;;;;;;;;;;;;;;-0.89;100.00;102059.97;5053799;28;19916;-72
2022/03/04 03:47:38;;;;;;;;;;;;;;;-0.93;100.00;102066.00;5035812;28;19916;-72
2022/03/04 03:50:04;;;;;;;;;;;;;;;-0.83;100.00;102068.84;5035659;28;20039;-72
2022/03/04 03:52:29;;;;;;;;;;;;;;;-0.88;100.00;102080.03;5050847;28;20020;-72
2022/03/04 03:54:54;;;;;;;;;;;;;;;-0.81;100.00;102074.06;5036548;28;19917;-72
2022/03/04 03:57:20;;;;;;;;;;;;;;;-0.89;100.00;102070.41;5034194;28;19925;-72
2022/03/04 03:59:45;;;;;;;;;;;;;;;-0.87;100.00;102079.16;5039314;28;19917;-72
2022/03/04 04:02:10;;;;;;;;;;;;;;;-0.79;100.00;102080.22;5046110;28;19925;-72
2022/03/04 04:04:35;;;;;;;;;;;;;;;-0.87;100.00;102079.16;5054888;28;19917;-72
2022/03/04 04:07:02;;;;;;;;;;;;;;;-0.93;100.00;102077.28;5019764;28;19924;-72
2022/03/04 04:09:27;;;;;;;;;;;;;;;-0.92;100.00;102084.28;5073766;28;19916;-73
2022/03/04 04:11:53;;;;;;;;;;;;;;;-0.94;100.00;102090.28;5077167;28;19920;-72
2022/03/04 04:14:18;;;;;;;;;;;;;;;-0.87;100.00;102094.81;5059092;28;19920;-72
2022/03/04 04:16:44;;;;;;;;;;;;;;;-0.93;100.00;102095.53;5076756;28;19924;-72
2022/03/04 04:19:09;;;;;;;;;;;;;;;-1.00;100.00;102101.47;5077311;28;19916;-72
2022/03/04 04:21:34;;;;;;;;;;;;;;;-1.08;100.00;102097.78;5077039;28;20369;-72
2022/03/04 04:23:59;;;;;;;;;;;;;;;-0.91;100.00;102108.59;5059185;28;19917;-72
2022/03/04 04:26:26;;;;;;;;;;;;;;;-1.02;100.00;102103.13;5077143;28;19942;-72
2022/03/04 04:28:51;;;;;;;;;;;;;;;-1.05;100.00;102107.38;5077158;28;19921;-71
2022/03/04 04:31:16;;;;;;;;;;;;;;;-0.95;100.00;102107.66;5059573;28;19916;-71
2022/03/04 04:33:42;;;;;;;;;;;;;;;-0.99;100.00;102116.25;5079524;28;19946;-72
2022/03/04 04:36:07;;;;;;;;;;;;;;;-1.05;100.00;102118.72;5082904;28;19920;-71
2022/03/04 04:38:32;;;;;;;;;;;;;;;-1.10;100.00;102115.09;5081682;28;19916;-71
2022/03/04 04:40:58;;;;;;;;;;;;;;;-1.08;100.00;102117.75;5077592;28;19916;-71
2022/03/04 04:43:23;;;;;;;;;;;;;;;-1.04;100.00;102119.59;5076865;28;19921;-71
2022/03/04 04:45:49;;;;;;;;;;;;;;;-1.03;100.00;102119.63;5062651;28;19916;-72
2022/03/04 04:48:14;;;;;;;;;;;;;;;-1.09;100.00;102113.38;5069604;28;19921;-73
2022/03/04 04:50:47;;;;;;;;;;;;;;;-1.10;100.00;102109.88;5019658;28;20008;-71
2022/03/04 04:53:21;;;;;;;;;;;;;;;-1.10;100.00;102109.88;5037244;28;19967;-72
2022/03/04 04:55:46;;;;;;;;;;;;;;;-1.04;100.00;102106.56;5037305;28;19917;-72
2022/03/04 04:58:34;;;;;;;;;;;;;;;-1.06;100.00;102105.63;5036976;28;20271;-72
2022/03/04 05:00:59;;;;;;;;;;;;;;;-1.07;100.00;102109.97;5036462;28;19921;-72
2022/03/04 05:03:25;;;;;;;;;;;;;;;-1.08;100.00;102108.22;5037041;28;19979;-72
2022/03/04 05:05:51;;;;;;;;;;;;;;;-1.10;100.00;102109.88;5036769;28;19931;-71
2022/03/04 05:08:17;;;;;;;;;;;;;;;-0.96;100.00;102110.25;5034745;28;19921;-72
2022/03/04 05:10:42;;;;;;;;;;;;;;;-0.96;100.00;102110.25;5036724;28;19928;-72
2022/03/04 05:13:07;;;;;;;;;;;;;;;-1.06;100.00;102116.97;5036395;28;19971;-72
2022/03/04 05:15:32;;;;;;;;;;;;;;;-1.06;100.00;102116.97;5036351;28;19921;-72
2022/03/04 05:18:00;;;;;;;;;;;;;;;-1.03;100.00;102114.44;5036402;28;20000;-72
2022/03/04 05:20:25;;;;;;;;;;;;;;;-0.99;100.00;102111.03;5036074;28;20457;-72
2022/03/04 05:22:50;;;;;;;;;;;;;;;-0.93;100.00;102115.53;5035643;28;19957;-72
2022/03/04 05:25:15;;;;;;;;;;;;;;;-0.98;100.00;102124.97;5035629;28;20028;-72
2022/03/04 05:27:41;;;;;;;;;;;;;;;-1.04;100.00;102119.59;5035686;28;19964;-71
2022/03/04 05:30:07;;;;;;;;;;;;;;;-1.07;100.00;102123.00;5036020;28;19924;-72
2022/03/04 05:35:35;;;;;;;;;;;;;;;-0.96;100.00;102131.09;5039366;28;19974;-71
2022/03/04 05:38:00;;;;;;;;;;;;;;;-0.84;100.00;102119.25;5058933;28;19940;-71
2022/03/04 05:40:26;;;;;;;;;;;;;;;-0.90;100.00;102121.69;5075782;28;19952;-71
2022/03/04 05:42:51;;;;;;;;;;;;;;;-0.93;100.00;102118.13;5063527;28;20380;-72
2022/03/04 05:45:16;;;;;;;;;;;;;;;-1.01;100.00;102115.31;5037560;28;19951;-72
2022/03/04 05:47:41;;;;;;;;;;;;;;;-1.02;100.00;102118.78;5037391;28;19925;-71
2022/03/04 05:50:07;;;;;;;;;;;;;;;-1.00;100.00;102121.44;5055052;28;19936;-72
2022/03/04 05:52:32;;;;;;;;;;;;;;;-0.99;100.00;102131.88;5037550;28;19917;-71
2022/03/04 05:54:57;;;;;;;;;;;;;;;-0.98;100.00;102136.28;5055263;28;19917;-71
2022/03/04 05:57:22;;;;;;;;;;;;;;;-1.06;100.00;102135.22;5055026;28;19921;-72
2022/03/04 05:59:48;;;;;;;;;;;;;;;-1.03;100.00;102127.47;5055043;28;20362;-71
2022/03/04 06:02:13;;;;;;;;;;;;;;;-1.05;100.00;102130.84;5037258;28;19921;-72
2022/03/04 06:04:38;;;;;;;;;;;;;;;-1.01;100.00;102138.78;5036943;28;20028;-71
2022/03/04 06:07:03;;;;;;;;;;;;;;;-1.01;100.00;102132.72;5055218;28;19921;-72
2022/03/04 06:09:28;;;;;;;;;;;;;;;-0.97;100.00;102140.66;5054996;28;19916;-72
2022/03/04 06:11:55;;;;;;;;;;;;;;;-1.00;100.00;102135.34;5054846;28;19917;-72
2022/03/04 06:14:21;;;;;;;;;;;;;;;-1.00;100.00;102140.56;5054689;28;19920;-72
2022/03/04 06:16:46;;;;;;;;;;;;;;;-0.96;100.00;102139.78;5036902;28;19970;-71
2022/03/04 06:19:11;;;;;;;;;;;;;;;-1.02;100.00;102141.34;5054638;28;19917;-72
2022/03/04 06:21:38;;;;;;;;;;;;;;;-0.93;100.00;102146.81;5032854;28;20320;-73
2022/03/04 06:24:04;;;;;;;;;;;;;;;-1.02;100.00;102144.84;5034940;28;19979;-73
2022/03/04 06:26:29;;;;;;;;;;;;;;;-1.01;100.00;102144.00;5036180;28;20330;-73
2022/03/04 06:28:55;;;;;;;;;;;;;;;-0.97;100.00;102158.91;5037615;28;20019;-75
2022/03/04 06:31:20;;;;;;;;;;;;;;;-0.89;100.00;102154.75;5045833;28;20332;-71
2022/03/04 06:33:46;;;;;;;;;;;;;;;-0.91;100.00;102152.94;5050836;28;19920;-72
2022/03/04 06:36:13;;;;;;;;;;;;;;;-0.97;100.00;102156.28;5050091;28;19952;-71
2022/03/04 06:38:41;;;;;;;;;;;;;;;-0.94;100.00;102158.97;5044746;28;19928;-71
2022/03/04 06:41:06;;;;;;;;;;;;;;;-0.85;100.00;102160.94;5045798;28;19917;-71
2022/03/04 06:43:32;;;;;;;;;;;;;;;-0.84;100.00;102157.47;5025456;28;19924;-74
2022/03/04 06:45:57;;;;;;;;;;;;;;;-0.87;100.00;102160.91;5030056;28;19940;-71
2022/03/04 06:48:22;;;;;;;;;;;;;;;-0.80;100.00;102174.94;5033856;28;19917;-70
2022/03/04 06:50:51;;;;;;;;;;;;;;;-0.78;100.00;102166.31;5037191;28;20012;-71
2022/03/04 06:53:16;;;;;;;;;;;;;;;-0.76;100.00;102175.06;5044736;28;19917;-72
2022/03/04 06:55:42;;;;;;;;;;;;;;;-0.69;100.00;102178.69;5039307;28;19921;-71
2022/03/04 06:58:07;;;;;;;;;;;;;;;-0.67;100.00;102171.78;5050938;28;19924;-71
2022/03/04 07:00:32;;;;;;;;;;;;;;;-0.65;100.00;102180.53;5041689;28;20090;-74
2022/03/04 07:02:57;;;;;;;;;;;;;;;-0.64;100.00;102177.97;5033398;28;19920;-71
2022/03/04 07:05:23;;;;;;;;;;;;;;;-0.55;100.00;102178.16;5045599;28;19928;-73
2022/03/04 07:07:49;;;;;;;;;;;;;;;-0.52;100.00;102183.47;5042207;28;19957;-72
2022/03/04 07:10:15;;;;;;;;;;;;;;;-0.48;100.00;102185.31;5038767;28;19917;-73
2022/03/04 07:12:40;;;;;;;;;;;;;;;-0.35;100.00;102187.34;5040976;28;19932;-71
2022/03/04 07:15:05;;;;;;;;;;;;;;;-0.33;100.00;102192.63;5053526;28;19923;-71
2022/03/04 07:17:43;;;;;;;;;;;;;;;-0.31;100.00;102197.00;5043199;28;19917;-71
2022/03/04 07:20:08;;;;;;;;;;;;;;;-0.18;100.00;102201.66;5026226;28;19921;-70
2022/03/04 07:22:38;;;;;;;;;;;;;;;-0.16;100.00;102205.19;5041383;28;20243;-71
2022/03/04 07:27:58;;;;;;;;;;;;;;;-0.05;100.00;102202.81;5044776;28;20020;-71
2022/03/04 07:30:24;;;;;;;;;;;;;;;-0.05;100.00;102198.47;5047043;28;20377;-71
2022/03/04 07:32:49;;;;;;;;;;;;;;;0.03;100.00;102202.13;5046486;28;19921;-71
2022/03/04 07:35:15;;;;;;;;;;;;;;;0.06;100.00;102205.66;5048259;28;19921;-71
2022/03/04 07:37:42;;;;;;;;;;;;;;;0.06;100.00;102200.44;5018460;28;19924;-72
2022/03/04 07:40:12;;;;;;;;;;;;;;;0.16;100.00;102195.41;5046310;28;20341;-72
2022/03/04 07:42:37;;;;;;;;;;;;;;;0.21;100.00;102200.75;5029964;28;19966;-72
2022/03/04 07:45:03;;;;;;;;;;;;;;;0.18;100.00;102201.56;5046299;28;19925;-76
2022/03/04 07:47:29;;;;;;;;;;;;;;;0.32;100.00;102200.13;5048250;28;20300;-73
2022/03/04 07:49:54;;;;;;;;;;;;;;;0.32;100.00;102209.69;5046967;28;20370;-76
2022/03/04 07:52:19;;;;;;;;;;;;;;;0.32;100.00;102205.34;5028486;28;20285;-73
2022/03/04 07:54:44;;;;;;;;;;;;;;;0.33;100.00;102201.88;5045359;28;20012;-74
2022/03/04 07:57:10;;;;;;;;;;;;;;;0.49;100.00;102213.53;5051356;28;19917;-74
2022/03/04 08:02:38;;;;;;;;;;;;;;;0.72;100.00;102209.63;5048738;28;19919;-71
2022/03/04 08:05:03;;;;;;;;;;;;;;;0.82;100.00;102211.56;5028679;28;19921;-73
2022/03/04 08:07:29;;;;;;;;;;;;;;;0.86;100.00;102206.44;5039223;28;19999;-78
2022/03/04 08:10:22;;;;;;;;;;;;;;;1.03;100.00;102209.31;5037156;28;19916;-76
2022/03/04 08:12:47;;;;;;;;;;;;;;;1.08;100.00;102205.06;5047113;28;20460;-78
2022/03/04 08:15:12;;;;;;;;;;;;;;;1.24;100.00;102212.31;5029261;28;19948;-75
2022/03/04 08:17:39;;;;;;;;;;;;;;;1.23;100.00;102205.34;5029341;28;19917;-75
2022/03/04 08:20:05;;;;;;;;;;;;;;;1.22;100.00;102200.94;5038058;28;20385;-73
2022/03/04 08:22:30;;;;;;;;;;;;;;;1.39;100.00;102209.94;5015577;28;20019;-73
2022/03/04 08:24:56;;;;;;;;;;;;;;;1.50;100.00;102216.22;5049958;28;19921;-72
2022/03/04 08:27:21;;;;;;;;;;;;;;;1.51;100.00;102208.41;5038528;28;20007;-72
2022/03/04 08:29:46;;;;;;;;;;;;;;;1.66;100.00;102205.16;5056426;28;19924;-71
2022/03/04 08:32:11;;;;;;;;;;;;;;;1.72;100.00;102207.84;5055809;28;19978;-74
2022/03/04 08:34:37;;;;;;;;;;;;;;;1.88;100.00;102206.31;5055760;28;20024;-73
2022/03/04 08:37:02;;;;;;;;;;;;;;;1.90;100.00;102200.28;5056016;28;19979;-71
2022/03/04 08:39:28;;;;;;;;;;;;;;;1.93;100.00;102207.28;5055963;28;20389;-71
2022/03/04 08:41:53;;;;;;;;;;;;;;;1.96;100.00;102199.47;5056218;28;19920;-72
2022/03/04 08:44:18;;;;;;;;;;;;;;;2.15;100.00;102196.22;5037647;28;19938;-71
2022/03/04 08:46:43;;;;;;;;;;;;;;;2.13;100.00;102198.81;5055288;28;19921;-71
2022/03/04 08:49:09;;;;;;;;;;;;;;;2.14;100.00;102194.47;5055227;28;19927;-73
2022/03/04 08:51:34;;;;;;;;;;;;;;;2.28;100.00;102192.91;5039277;28;19917;-72
2022/03/04 08:53:59;;;;;;;;;;;;;;;2.34;100.00;102196.50;5035927;28;19949;-73
2022/03/04 08:56:25;;;;;;;;;;;;;;;2.31;100.00;102193.84;5036050;28;20374;-72
2022/03/04 08:59:21;;;;;;;;;;;;;;;2.46;100.00;102193.16;5035972;28;19917;-72
2022/03/04 09:01:46;;;;;;;;;;;;;;;2.50;100.00;102197.53;5035952;28;19923;-72
2022/03/04 09:04:45;;;;;;;;;;;;;;;2.59;100.00;102187.16;5036817;28;19917;-72
2022/03/04 09:07:10;;;;;;;;;;;;;;;2.60;100.00;102181.06;5053956;28;19924;-72
2022/03/04 09:09:35;;;;;;;;;;;;;;;2.73;100.00;102194.31;5039350;28;19917;-72
2022/03/04 09:12:01;;;;;;;;;;;;;;;2.88;100.00;102191.84;5055482;28;20424;-72
2022/03/04 09:14:26;;;;;;;;;;;;;;;2.81;100.00;102186.50;5055767;28;19939;-72
2022/03/04 09:16:52;;;;;;;;;;;;;;;2.91;100.00;102186.66;5055029;28;20394;-72
2022/03/04 09:19:17;;;;;;;;;;;;;;;2.91;100.00;102188.38;5023142;28;19921;-72
2022/03/04 09:21:42;;;;;;;;;;;;;;;3.06;100.00;102189.41;5046041;28;20366;-72
2022/03/04 09:24:08;;;;;;;;;;;;;;;3.08;100.00;102181.53;5045324;28;20012;-72
2022/03/04 09:26:33;;;;;;;;;;;;;;;3.21;100.00;102191.28;5035980;28;20270;-72
2022/03/04 09:28:58;;;;;;;;;;;;;;;3.32;100.00;102188.75;5035416;28;19917;-72
2022/03/04 09:31:23;;;;;;;;;;;;;;;3.30;100.00;102185.22;5035247;28;20354;-72
2022/03/04 09:33:49;;;;;;;;;;;;;;;3.38;100.00;102191.41;5035101;28;19917;-71
2022/03/04 09:36:14;;;;;;;;;;;;;;;3.63;100.00;102183.72;5035244;28;19924;-71
2022/03/04 09:38:40;;;;;;;;;;;;;;;3.67;100.00;102193.38;5035216;28;19924;-72
2022/03/04 09:41:06;;;;;;;;;;;;;;;3.59;100.00;102197.72;5034928;28;19940;-75
2022/03/04 09:43:32;;;;;;;;;;;;;;;3.76;100.00;102203.97;5017147;28;19917;-72
2022/03/04 09:45:57;;;;;;;;;;;;;;;3.79;100.00;102206.63;5017190;28;19917;-72
2022/03/04 09:48:22;;;;;;;;;;;;;;;3.89;100.00;102199.69;5021028;28;19920;-75
2022/03/04 09:50:48;;;;;;;;;;;;;;;3.99;100.00;102204.97;5029875;28;20008;-75
2022/03/04 09:53:13;;;;;;;;;;;;;;;3.96;100.00;102204.06;5034478;28;20285;-74
2022/03/04 09:55:39;;;;;;;;;;;;;;;4.10;100.00;102197.16;5029929;28;19998;-75
2022/03/04 09:58:10;;;;;;;;;;;;;;;4.14;100.00;102197.19;5050638;28;19917;-80
2022/03/04 10:00:36;;;;;;;;;;;;;;;4.20;100.00;102199.84;5055541;28;19917;-73
2022/03/04 10:03:01;;;;;;;;;;;;;;;4.17;100.00;102199.84;5054062;28;19923;-75
2022/03/04 10:05:26;;;;;;;;;;;;;;;4.45;100.00;102199.06;5054541;28;19970;-73
2022/03/04 10:07:52;;;;;;;;;;;;;;;4.44;100.00;102199.06;5054835;28;19921;-72
2022/03/04 10:10:18;;;;;;;;;;;;;;;4.63;100.00;102187.75;5055309;28;20369;-72
2022/03/04 10:12:55;;;;;;;;;;;;;;;4.68;100.00;102180.72;5036853;28;19925;-74
2022/03/04 10:15:21;;;;;;;;;;;;;;;4.82;100.00;102184.28;5037180;28;19917;-75
2022/03/04 10:18:00;;;;;;;;;;;;;;;4.92;100.00;102180.78;5055159;28;19923;-76
2022/03/04 10:20:39;;;;;;;;;;;;;;;4.95;100.00;102177.28;5036647;28;20178;-74
2022/03/04 10:23:11;;;;;;;;;;;;;;;5.04;100.00;102175.53;5047543;28;19921;-74
2022/03/04 10:25:37;;;;;;;;;;;;;;;5.04;100.00;102172.91;5049458;28;20364;-74
2022/03/04 10:28:15;;;;;;;;;;;;;;;5.22;100.00;102164.13;5040381;28;19953;-77
2022/03/04 10:30:42;;;;;;;;;;;;;;;5.29;100.00;102164.16;5051608;28;19955;-75
2022/03/04 10:33:09;;;;;;;;;;;;;;;5.26;100.00;102161.50;5037510;28;19991;-76
2022/03/04 10:35:35;;;;;;;;;;;;;;;5.43;100.00;102162.38;5054035;28;19943;-77
2022/03/04 10:38:00;;;;;;;;;;;;;;;5.54;100.00;102155.34;5036109;28;19917;-74
2022/03/04 10:40:25;;;;;;;;;;;;;;;5.75;100.00;102150.00;5050049;28;19921;-73
2022/03/04 10:42:52;;;;;;;;;;;;;;;5.95;100.00;102152.63;5046029;28;19928;-73
2022/03/04 10:45:27;;;;;;;;;;;;;;;5.96;100.00;102150.00;5034208;28;20318;-73
2022/03/04 10:48:07;;;;;;;;;;;;;;;6.16;100.00;102148.16;5034158;28;19921;-73
2022/03/04 10:50:36;;;;;;;;;;;;;;;6.37;100.00;102155.09;5034211;28;19917;-73
2022/03/04 10:53:01;;;;;;;;;;;;;;;6.51;100.00;102157.69;5033880;28;19917;-73
2022/03/04 10:55:31;;;;;;;;;;;;;;;6.61;100.00;102156.75;5041948;28;19966;-73
2022/03/04 10:57:57;;;;;;;;;;;;;;;6.93;100.00;102149.50;5051387;28;19974;-74
2022/03/04 11:00:23;;;;;;;;;;;;;;;7.15;100.00;102156.38;5053543;28;20008;-74
2022/03/04 11:02:49;;;;;;;;;;;;;;;7.35;100.00;102152.69;5052751;28;19952;-73
2022/03/04 11:05:14;;;;;;;;;;;;;;;7.70;100.00;102155.00;5052806;28;19921;-73
2022/03/04 11:07:42;;;;;;;;;;;;;;;8.48;100.00;102150.56;5053499;28;19916;-74
2022/03/04 11:10:07;;;;;;;;;;;;;;;10.10;100.00;102139.03;5053299;28;20019;-74
2022/03/04 11:12:33;;;;;;;;;;;;;;;11.37;100.00;102152.94;5036255;28;20004;-74
2022/03/04 11:14:58;;;;;;;;;;;;;;;12.59;100.00;102145.06;5060173;28;19924;-74
2022/03/04 11:17:24;;;;;;;;;;;;;;;13.88;100.00;102151.44;5041806;28;19921;-74
2022/03/04 11:19:50;;;;;;;;;;;;;;;14.51;100.00;102145.56;5059946;28;19916;-73
2022/03/04 11:22:37;;;;;;;;;;;;;;;15.44;100.00;102156.13;5060204;28;20282;-74
2022/03/04 11:25:03;;;;;;;;;;;;;;;16.99;100.00;102149.88;5060765;28;19923;-74
2022/03/04 11:27:58;;;;;;;;;;;;;;;17.05;100.00;102148.72;5042445;28;19924;-74
2022/03/04 11:30:27;;;;;;;;;;;;;;;17.15;100.00;102155.38;5060419;28;20032;-74
2022/03/04 11:32:59;;;;;;;;;;;;;;;16.49;100.00;102149.63;5042058;28;19920;-74
2022/03/04 11:35:42;;;;;;;;;;;;;;;18.06;100.00;102152.47;5060047;28;20234;-74
2022/03/04 11:38:11;;;;;;;;;;;;;;;18.53;100.00;102153.50;5045110;28;19929;-74
2022/03/04 11:40:38;;;;;;;;;;;;;;;18.80;100.00;102151.13;5040494;28;19952;-76
2022/03/04 11:43:06;;;;;;;;;;;;;;;19.04;100.00;102157.78;5056497;28;19921;-74
2022/03/04 11:45:34;;;;;;;;;;;;;;;19.07;100.00;102155.78;5060255;28;19917;-75
2022/03/04 11:48:04;;;;;;;;;;;;;;;19.26;100.00;102153.78;5060384;28;19917;-73
2022/03/04 11:50:34;;;;;;;;;;;;;;;19.93;100.00;102152.50;5060130;28;19955;-74
2022/03/04 11:53:10;;;;;;;;;;;;;;;20.06;100.00;102148.13;5060051;28;19963;-74
2022/03/04 11:55:35;;;;;;;;;;;;;;;20.76;100.00;102145.44;5040255;28;19967;-72
2022/03/04 11:58:01;;;;;;;;;;;;;;;19.96;100.00;102150.50;5052487;28;20277;-72
2022/03/04 12:00:27;;;;;;;;;;;;;;;20.23;100.00;102145.28;5059949;28;19917;-73
2022/03/04 12:02:54;;;;;;;;;;;;;;;21.34;100.00;102143.38;5060358;28;19917;-72
2022/03/04 12:05:22;;;;;;;;;;;;;;;21.79;100.00;102136.75;5046023;28;20316;-73
2022/03/04 12:07:51;;;;;;;;;;;;;;;21.74;100.00;102142.44;5039941;28;19972;-74
2022/03/04 12:10:17;;;;;;;;;;;;;;;22.52;100.00;102134.19;5025019;28;20373;-72
2022/03/04 12:13:06;;;;;;;;;;;;;;;22.47;100.00;102138.19;5042177;28;19983;-72
2022/03/04 12:15:39;;;;;;;;;;;;;;;22.78;100.00;102137.72;5049060;28;19943;-72
2022/03/04 12:18:08;;;;;;;;;;;;;;;23.15;100.00;102136.72;5053411;28;19931;-73
2022/03/04 12:20:39;;;;;;;;;;;;;;;23.35;100.00;102138.84;5059891;28;19920;-74
2022/03/04 12:23:09;;;;;;;;;;;;;;;22.57;100.00;102134.72;5042004;28;19920;-74
2022/03/04 12:25:53;;;;;;;;;;;;;;;23.03;100.00;102134.94;5056922;28;19996;-75
2022/03/04 12:28:20;;;;;;;;;;;;;;;22.65;100.00;102136.88;5054016;28;20305;-71
2022/03/04 12:30:45;;;;;;;;;;;;;;;23.61;100.00;102131.44;5042223;28;20016;-71
2022/03/04 12:33:12;;;;;;;;;;;;;;;23.35;92.05;102129.84;5047844;28;19968;-71
2022/03/04 12:35:37;;;;;;;;;;;;;;;23.56;96.96;102130.91;5043948;28;19961;-71
2022/03/04 12:38:02;;;;;;;;;;;;;;;23.27;99.97;102134.97;5048497;28;19983;-72